Terminal Aerodrome Forecast
Issued by NWS Mobile, AL

Home | Current Version | Previous Version | Text Only | Print | Product List | Glossary On
Versions: 1 2 3 4 5 6 7 8 9 10 11 12 13 14 15 16 17 18 19 20 21 22 23 24 25 26 27 28 29 30 31 32 33 34 35
000
FTUS44 KMOB 281700 RRA
TAFPNS
TAF
KPNS 281750Z 2818/2918 25009KT P6SM BKN009 OVC020
     FM290500 36010KT 2SM BR OVC009
      TEMPO 2906/2910 2SM -RA OVC004
     FM291600 01006KT 2SM BR OVC004=

USA.gov is the U.S. government's official web portal to all federal, state and local government web resources and services.